Tiempo atmosférico en la estación meteorológica de Jalance, València/Valencia (372 m.)



Fecha
DESCASC
Temp. máxima en grados centígrados (hora)
DESCASC
Temp. mínima en grados centígrados (hora)
DESCASC
Temp. media en grados centígrados
DESCASC
Racha de viento máxima en m/sg (hora)
DESCASC
Velocidad máxima media en intervalos de 10 minutos(hora)
DESCASC
Precipitaciones diarias en mm
DESCASC
Precipitaciones de 00:00 a 06:00 en mm
DESCASC
Precipitaciones de 06:00 a 12:00 en mm
DESCASC
Precipitaciones de 12:00 a 18:00 en mm
DESCASC
Precipitaciones de 18:00 a 24:00 en mm
DESCASC
05-04-2020 18.5 (15:00) 8 (07:40) 13.3 9.17 (16:50) 4.17 (17:50) 0 0 0 0 0
04-04-2020 18 (17:00) 3.6 (06:40) 10.8 6.67 (15:40) 3.33 (16:50) 0 0 0 0 0
03-04-2020 19.1 (18:40) 6.1 (08:10) 12.6 6.94 (17:20) 3.61 (20:30) 0.4 0.2 0.2 0 0
02-04-2020 17 (15:10) 7.9 (00:00) 12.5 10 (18:10) 4.17 (18:10) 11.8 0 0 1.6 10.2
01-04-2020 18.1 (15:10) 8.1 (00:00) 13.1 8.89 (14:20) 4.44 (14:20) 5.4 4.8 0.6 0 0
31-03-2020 13.6 (17:30) 5.6 (00:00) 9.6 5.83 (22:40) 2.78 (02:40) 9.2 4.2 5 0 0
30-03-2020 14 (13:20) 6.4 (00:00) 10.2 6.11 (13:40) 3.33 (14:20) 7.8 0 0 0.8 7
29-03-2020 20.1 (17:00) 0.7 (00:00) 10.4 9.44 (17:50) 3.89 (17:20) 0 0 0 0 0
28-03-2020 15.6 (16:10) 3.5 (00:00) 9.6 5.28 (15:00) 2.5 (15:10) 0 0 0 0 0
27-03-2020 7.7 (00:00) 5.9 (00:00) 6.8 6.39 (01:40) 2.78 (10:40) 9.2 0 3.4 5.2 0.6
26-03-2020 14.3 (14:20) 5.9 (00:00) 10.1 8.61 (12:10) 5 (12:10) 0.2 0 0 0 0.2
25-03-2020 10.8 (14:40) 6.6 (00:00) 8.7 5.83 (16:20) 3.33 (16:20) 5.8 1 1.6 3 0.2
24-03-2020 12 (00:00) 9.2 (00:00) 10.6 14.44 (13:30) 4.72 (14:20) 31.2 7.6 22.8 0.8 0
23-03-2020 14 (13:40) 9.2 (00:00) 11.6 8.89 (21:30) 4.17 (21:30) 10.2 3.2 0 6.4 0.6
22-03-2020 12.7 (14:30) 7.3 (03:40) 10 5.28 (14:10) 2.78 (12:10) 13.4 0 0.2 5 8.2
21-03-2020 11.2 (12:20) 8.2 (00:00) 9.7 6.11 (17:50) 3.06 (12:40) 9.8 0 0 0 9.8
20-03-2020 11.6 (10:20) 9.9 (00:00) 10.8 5.83 (10:50) 3.06 (16:00) 0 0 0 0 0
19-03-2020 13 (16:30) 7.2 (00:00) 10.1 5 (11:10) 2.5 (13:40) 0 0 0 0 0
18-03-2020 15.5 (14:50) 8.4 (00:00) 11.9 10.28 (12:30) 4.72 (12:00) 0 0 0 0 0
17-03-2020 13.3 (16:00) 5.8 (00:00) 9.6 11.39 (19:00) 4.17 (18:30) 13 3 7.2 2.4 0.4
16-03-2020 12.5 (00:00) 4.4 (00:00) 8.5 12.5 (09:10) 4.44 (09:00) 13.8 1.2 0.6 10.4 1.6
15-03-2020 22.6 (15:00) 6.8 (00:00) 14.7 8.33 (16:00) 4.17 (16:10) 0 0 0 0 0
14-03-2020 22.5 (14:40) 5.8 (00:00) 14.2 6.39 (16:00) 3.61 (16:50) 0 0 0 0 0
13-03-2020 18.6 (13:50) 7.1 (06:40) 12.9 8.33 (13:10) 4.44 (14:10) 0 0 0 0 0
12-03-2020 28.2 (15:00) 6.1 (00:00) 17.2 6.11 (17:50) 3.89 (18:10) 0 0 0 0 0
11-03-2020 29.7 (17:00) 6.7 (00:00) 18.2 6.39 (19:50) 4.17 (18:50) 0 0 0 0 0
10-03-2020 23.7 (16:20) 8.5 (00:00) 16.1 7.78 (13:30) 3.61 (13:30) 0 0 0 0 0

Gráficas

Temp. máximas Temp. mínimas Temp. medias Precipitaciones Rachas de viento máximas Velocidades máximas media en intervalos de 10 minutos

Datos horarios

Fecha y hora oficial Temperatura (ºC) Velocidad del viento (km/h) Dirección del viento Racha (km/h) Dirección de racha Precipitación (mm) Presión (hPa) Tendencia (hPa) Humedad (%)
2020-04-08 23:00:00 -- -- -- -- -- -- -- -- --
2020-04-08 22:00:00 12.2 3 Noroeste 7 Norte 0 -- -- 64
2020-04-08 21:00:00 14.3 3 Norte 10 Norte 0 -- -- 60
2020-04-08 20:00:00 16.5 4 Nordeste 21 Nordeste 0 -- -- 56
2020-04-08 19:00:00 18.1 10 Norte 26 Norte 0 -- -- 58
2020-04-08 18:00:00 19.9 14 Norte 34 Norte 0 -- -- 51
2020-04-08 17:00:00 21.2 13 Norte 30 Norte 0 -- -- 45
2020-04-08 16:00:00 20.9 13 Norte 30 Norte 0 -- -- 45
2020-04-08 15:00:00 20.7 11 Nordeste 21 Este 0 -- -- 47
2020-04-08 14:00:00 19.7 9 Norte 19 Noroeste 0 -- -- 49
2020-04-08 13:00:00 18.5 6 Norte 15 Norte 0 -- -- 50
2020-04-08 12:00:00 16.1 5 Norte 13 Norte 0 -- -- 62
2020-04-08 11:00:00 13.9 3 Norte 7 Este 0 -- -- 67
2020-04-08 10:00:00 10.6 0 Calma 6 Este 0 -- -- 79
2020-04-08 09:00:00 7.4 0 Calma 3 Norte 0 -- -- 95
2020-04-08 08:00:00 5.3 0 Calma 4 Sudeste 0 -- -- 95
2020-04-08 07:00:00 5.5 0 Calma 2 Noroeste 0 -- -- 94
2020-04-08 06:00:00 5.9 0 Calma 2 Sudeste 0 -- -- 93
2020-04-08 05:00:00 6.6 0 Calma -- -- 0 -- -- 92
2020-04-08 04:00:00 7.3 0 Calma -- -- 0 -- -- 91
2020-04-08 03:00:00 8.1 0 Calma 2 Sudeste 0 -- -- 89
2020-04-08 02:00:00 9.2 0 Calma 5 Noroeste 0 -- -- 86
2020-04-08 01:00:00 10.6 2 Noroeste 9 Noroeste 0 -- -- 80
2020-04-08 00:00:00 11 3 Noroeste 6 Norte 0 -- -- 78
2020-04-07 23:00:00 11.9 0 Calma 8 Sudeste 0 -- -- 78
2020-04-07 22:00:00 13.1 2 Este 8 Sudeste 0 -- -- 72
2020-04-07 21:00:00 13.9 4 Noroeste 19 Nordeste 0 -- -- 71
2020-04-07 20:00:00 14.8 8 Norte 24 Nordeste 0 -- -- 69
2020-04-07 19:00:00 16.3 12 Norte 27 Norte 0 -- -- 67
2020-04-07 18:00:00 17.1 12 Norte 26 Norte 0 -- -- 68
2020-04-07 17:00:00 17.1 13 Norte 28 Nordeste 0 -- -- 68
2020-04-07 16:00:00 17.4 14 Norte 26 Norte 0 -- -- 66
2020-04-07 15:00:00 17.1 10 Nordeste 23 Nordeste 0 -- -- 68
2020-04-07 14:00:00 15.9 10 Norte 22 Nordeste 0 -- -- 73
2020-04-07 13:00:00 15.3 9 Norte 22 Nordeste 0 -- -- 76
2020-04-07 12:00:00 14.9 9 Norte 16 Nordeste 0 -- -- 77
2020-04-07 11:00:00 14.4 6 Norte 11 Noroeste 0 -- -- 77
2020-04-07 10:00:00 13 2 Norte 8 Norte 0 -- -- 80
2020-04-07 09:00:00 12 0 Calma 3 Sur 0 -- -- 88
2020-04-07 08:00:00 11.7 0 Calma 3 Noroeste 0 -- -- 90
2020-04-07 07:00:00 11.7 3 Oeste 5 Noroeste 0 -- -- 88
2020-04-07 06:00:00 11.7 2 Nordeste 4 Noroeste 0 -- -- 88
2020-04-07 05:00:00 11.7 4 Norte 6 Norte 0 -- -- 87
2020-04-07 04:00:00 11.8 3 Norte 12 Norte 0 -- -- 87
2020-04-07 03:00:00 11.8 6 Norte 14 Noroeste 0 -- -- 86
2020-04-07 02:00:00 11.8 9 Noroeste 13 Noroeste 0 -- -- 87
2020-04-07 01:00:00 12.1 6 Noroeste 10 Noroeste 0 -- -- 89
2020-04-07 00:00:00 12.5 6 Noroeste 12 Nordeste 0 -- -- 87
2020-04-06 23:00:00 12.9 7 Noroeste 12 Norte 0 -- -- 87
2020-04-06 22:00:00 13.7 5 Norte 11 Este 0 -- -- 83
2020-04-06 21:00:00 14.3 6 Sudeste 18 Este 0 -- -- 80
2020-04-06 20:00:00 15.1 3 Este 20 Norte 0 -- -- 78
2020-04-06 19:00:00 15.9 8 Norte 21 Norte 0 -- -- 75
2020-04-06 18:00:00 16.6 7 Norte 15 Nordeste 0 -- -- 74
2020-04-06 17:00:00 17.9 4 Nordeste 17 Sudeste 0 -- -- 67
2020-04-06 16:00:00 19.1 6 Nordeste 23 Nordeste 0 -- -- 64
2020-04-06 15:00:00 20 10 Norte 23 Nordeste 0 -- -- 58
2020-04-06 14:00:00 20 7 Norte 13 Norte 0 -- -- 58
2020-04-06 13:00:00 18.2 5 Noroeste 12 Norte 0 -- -- 66
2020-04-06 12:00:00 15.9 4 Noroeste 8 Este 0 -- -- 71
2020-04-06 11:00:00 13.4 4 Sudoeste 8 Sur 0 -- -- 80
2020-04-06 10:00:00 10.8 4 Nordeste 7 Nordeste 0 -- -- 89
2020-04-06 09:00:00 8.9 0 Calma 4 Este 0 -- -- 95
2020-04-06 08:00:00 8.2 0 Calma 2 Oeste 0 -- -- 95
2020-04-06 07:00:00 7.7 0 Calma 2 Este 0 -- -- 93
2020-04-06 06:00:00 8.3 0 Calma 2 Norte 0 -- -- 92
2020-04-06 05:00:00 8.9 0 Calma 5 Noroeste 0 -- -- 90
2020-04-06 04:00:00 9.4 3 Noroeste 5 Noroeste 0 -- -- 91
2020-04-06 03:00:00 9.3 0 Calma 6 Norte 0 -- -- 92
2020-04-06 02:00:00 8.9 0 Calma 3 Este 0 -- -- 92
2020-04-06 01:00:00 9.1 0 Calma 3 Sur 0 -- -- 91
2020-04-06 00:00:00 9.7 0 Calma 4 Norte 0 -- -- 88
2020-04-05 23:00:00 10.6 0 Calma 5 Noroeste 0 -- -- 84
2020-04-05 22:00:00 11.9 0 Calma 7 Este 0 -- -- 80
2020-04-05 21:00:00 13.6 5 Nordeste 13 Este 0 -- -- 72
2020-04-05 20:00:00 15.1 8 Sudeste 19 Sudeste 0 -- -- 68
2020-04-05 19:00:00 17 6 Este 26 Norte 0 -- -- 62
2020-04-05 18:00:00 17.6 14 Norte 30 Norte 0 -- -- 60
2020-04-05 17:00:00 18 12 Norte 33 Nordeste 0 -- -- 58
2020-04-05 16:00:00 18.1 13 Norte 24 Norte 0 -- -- 55
2020-04-05 15:00:00 18.5 9 Norte 18 Noroeste 0 -- -- 54
2020-04-05 14:00:00 17.7 8 Este 19 Este 0 -- -- 53
2020-04-05 13:00:00 16.6 6 Este 21 Este 0 -- -- 54
2020-04-05 12:00:00 15.3 7 Sudeste 20 Sudeste 0 -- -- 60
2020-04-05 11:00:00 13 3 Sudeste 10 Nordeste 0 -- -- 72
2020-04-05 10:00:00 11.2 0 Calma 4 Este 0 -- -- 81
2020-04-05 09:00:00 9.1 0 Calma 2 Este 0 -- -- 90
2020-04-05 08:00:00 8.1 0 Calma 0 Calma 0 -- -- 93
2020-04-05 07:00:00 8.2 0 Calma 2 Norte 0 -- -- 93
2020-04-05 06:00:00 8.2 0 Calma 2 Sudoeste 0 -- -- 92
2020-04-05 05:00:00 8.5 0 Calma 0 Calma 0 -- -- 92
2020-04-05 04:00:00 8.7 0 Calma 3 Sudeste 0 -- -- 91
2020-04-05 03:00:00 8.7 0 Calma 4 Sudeste 0 -- -- 91
2020-04-05 02:00:00 8.9 0 Calma 3 Este 0 -- -- 90
2020-04-05 01:00:00 9.5 2 Noroeste 4 Noroeste 0 -- -- 88
2020-04-05 00:00:00 10.6 0 Calma 9 Oeste 0 -- -- 83
2020-04-04 23:00:00 12 5 Noroeste 17 Norte 0 -- -- 80
2020-04-04 22:00:00 12.9 8 Norte 22 Nordeste 0 -- -- 78
2020-04-04 21:00:00 13.4 9 Norte 18 Nordeste 0 -- -- 76
2020-04-04 20:00:00 14.6 8 Norte 14 Nordeste 0 -- -- 70
2020-04-04 19:00:00 15.8 6 Sudeste 18 Este 0 -- -- 63
2020-04-04 18:00:00 17 7 Sudeste 20 Este 0 -- -- 60
2020-04-04 17:00:00 18 10 Sudeste 23 Sudeste 0 -- -- 55
2020-04-04 16:00:00 17.2 9 Sudeste 24 Sudeste 0 -- -- 50
2020-04-04 15:00:00 17.2 10 Sudeste 21 Sur 0 -- -- 52
2020-04-04 14:00:00 16.4 3 Noroeste 12 Norte 0 -- -- 52
2020-04-04 13:00:00 15.6 8 Norte 16 Nordeste 0 -- -- 63
2020-04-04 12:00:00 14.2 5 Nordeste 12 Nordeste 0 -- -- 67
2020-04-04 11:00:00 11 4 Sudeste 8 Este 0 -- -- 78
2020-04-04 10:00:00 6.8 2 Este 4 Este 0 -- -- 97
2020-04-04 09:00:00 4.8 0 Calma 2 Oeste 0 -- -- 96
2020-04-04 08:00:00 4 0 Calma 2 Este 0 -- -- 95
2020-04-04 07:00:00 3.6 0 Calma 0 Calma 0 -- -- 95
2020-04-04 06:00:00 3.9 0 Calma 2 Este 0 -- -- 94
2020-04-04 05:00:00 4.4 0 Calma 2 Sudeste 0 -- -- 93
2020-04-04 04:00:00 5.1 0 Calma 2 Este 0 -- -- 92
2020-04-04 03:00:00 5.9 0 Calma 2 Sudoeste 0 -- -- 91
2020-04-04 02:00:00 6.7 2 Sur 4 Sudeste 0 -- -- 89
2020-04-04 01:00:00 7.8 2 Nordeste 6 Norte 0 -- -- 86
2020-04-04 00:00:00 9.3 4 Noroeste 11 Noroeste 0 -- -- 79
2020-04-03 23:00:00 10.7 6 Noroeste 13 Noroeste 0 -- -- 72
2020-04-03 22:00:00 11.9 7 Noroeste 15 Noroeste 0 -- -- 69
2020-04-03 21:00:00 13.4 11 Noroeste 18 Noroeste 0 -- -- 66
2020-04-03 20:00:00 15.5 6 Norte 12 Nordeste 0 -- -- 61
2020-04-03 19:00:00 17.9 3 Sur 12 Sudeste 0 -- -- 47
2020-04-03 18:00:00 18.7 6 Norte 25 Sur 0 -- -- 41
2020-04-03 17:00:00 18.9 10 Sur 21 Sudoeste 0 -- -- 40
2020-04-03 16:00:00 17.2 7 Noroeste 21 Noroeste 0 -- -- 46
2020-04-03 15:00:00 16.8 8 Noroeste 20 Noroeste 0 -- -- 50
2020-04-03 14:00:00 16.5 8 Sudeste 18 Sudoeste 0 -- -- 56
2020-04-03 13:00:00 15.2 5 Sudeste 11 Este 0 -- -- 66
2020-04-03 12:00:00 13.1 4 Nordeste 8 Este 0 -- -- 74
2020-04-03 11:00:00 10.9 4 Este 8 Nordeste 0 -- -- 79
2020-04-03 10:00:00 8.6 5 Norte 10 Norte 0 -- -- 92
2020-04-03 09:00:00 6.5 2 Norte 5 Norte 0.2 -- -- 96
2020-04-03 08:00:00 6.2 0 Calma 5 Oeste 0 -- -- 96
2020-04-03 07:00:00 6.6 3 Norte 4 Oeste 0 -- -- 96
2020-04-03 06:00:00 6.7 0 Calma 5 Norte 0 -- -- 95
2020-04-03 05:00:00 6.9 0 Calma 4 Sudoeste 0 -- -- 94
2020-04-03 04:00:00 7.9 0 Calma 4 Sudoeste 0 -- -- 93
2020-04-03 03:00:00 8.9 0 Calma 8 Norte 0 -- -- 94
2020-04-03 02:00:00 8.9 0 Calma 5 Oeste 0 -- -- 93
2020-04-03 01:00:00 9.3 2 Noroeste 9 Noroeste 0.2 -- -- 93
2020-04-03 00:00:00 9.4 0 Calma 7 Noroeste 0.4 -- -- 93
2020-04-02 23:00:00 9.6 2 Norte 9 Noroeste 0.8 -- -- 92
2020-04-02 22:00:00 9.7 4 Noroeste 19 Norte 4.8 -- -- 92
2020-04-02 21:00:00 10.4 5 Norte 8 Noroeste 0.2 -- -- 90
2020-04-02 20:00:00 10.5 0 Calma 9 Norte 0.2 -- -- 90
2020-04-02 19:00:00 10.1 5 Sur 36 Nordeste 3.8 -- -- 87
2020-04-02 18:00:00 13.5 6 Sudeste 17 Oeste 0 -- -- 73
2020-04-02 17:00:00 12.1 10 Oeste 19 Sudoeste 1.6 -- -- 77
2020-04-02 16:00:00 15.8 8 Sudeste 21 Sudeste 0 -- -- 55
2020-04-02 15:00:00 16.5 6 Sur 17 Nordeste 0 -- -- 49
2020-04-02 14:00:00 15.1 8 Norte 20 Norte 0 -- -- 58
2020-04-02 13:00:00 14.4 7 Este 17 Este 0 -- -- 62
2020-04-02 12:00:00 14.5 11 Este 17 Este 0 -- -- 60
2020-04-02 11:00:00 12.9 9 Este 12 Este 0 -- -- 68
2020-04-02 10:00:00 10.1 2 Sur 6 Sudeste 0 -- -- 84
2020-04-02 09:00:00 9 0 Calma 9 Norte 0 -- -- 88
2020-04-02 08:00:00 8.9 5 Norte 17 Norte 0 -- -- 86
2020-04-02 07:00:00 8.3 3 Este 4 Sudeste 0 -- -- 90
2020-04-02 06:00:00 8.4 0 Calma 5 Sudoeste 0 -- -- 86
2020-04-02 05:00:00 9.4 2 Sur 6 Sur 0 -- -- 84
2020-04-02 04:00:00 9.4 0 Calma 10 Sudoeste 0 -- -- 82
2020-04-02 03:00:00 10.5 3 Sur 13 Sur 0 -- -- 76
2020-04-02 02:00:00 10.9 5 Sudeste 17 Sur 0 -- -- 76
2020-04-02 01:00:00 11 3 Sur 16 Este 0 -- -- 77
2020-04-02 00:00:00 11.5 7 Sur 20 Sudeste 0 -- -- 76
2020-04-01 23:00:00 12.1 6 Nordeste 12 Nordeste 0 -- -- 81
2020-04-01 22:00:00 12.3 7 Noroeste 14 Sudeste 0 -- -- 79
2020-04-01 21:00:00 13.5 7 Sudeste 15 Sur 0 -- -- 72
2020-04-01 20:00:00 15.2 12 Este 23 Este 0 -- -- 59
2020-04-01 19:00:00 16.9 3 Sur 15 Noroeste 0 -- -- 54
2020-04-01 18:00:00 17.4 3 Noroeste 22 Sudoeste 0 -- -- 49
2020-04-01 17:00:00 17.4 6 Sudoeste 26 Norte 0 -- -- 48
2020-04-01 16:00:00 17.9 8 Sudoeste 27 Oeste 0 -- -- 50
2020-04-01 15:00:00 17.7 9 Sur 32 Noroeste 0 -- -- 53
2020-04-01 14:00:00 17 8 Noroeste 28 Noroeste 0 -- -- 55
2020-04-01 13:00:00 16.1 6 Norte 21 Noroeste 0 -- -- 63
2020-04-01 12:00:00 14.8 5 Sudeste 12 Nordeste 0 -- -- 75
2020-04-01 11:00:00 13.1 3 Este 8 Sudeste 0 -- -- 81
2020-04-01 10:00:00 11.4 3 Norte 9 Sur 0 -- -- 86
2020-04-01 09:00:00 8.9 0 Calma 4 Nordeste 0 -- -- 96
2020-04-01 08:00:00 8.4 0 Calma 9 Sudoeste 0 -- -- 94
2020-04-01 07:00:00 9.3 3 Norte 9 Noroeste 0.6 -- -- 94
2020-04-01 06:00:00 9.7 0 Calma 5 Sudeste 2.6 -- -- 94
2020-04-01 05:00:00 10.1 3 Nordeste 6 Este 2 -- -- 94
2020-04-01 04:00:00 10.3 0 Calma 5 Norte 0.2 -- -- 93
2020-04-01 03:00:00 10.6 0 Calma 4 Oeste 0 -- -- 91
2020-04-01 02:00:00 10.7 2 Norte 8 Noroeste 0 -- -- 88
2020-04-01 01:00:00 10.8 3 Nordeste 14 Norte 0 -- -- 87
2020-04-01 00:00:00 11 8 Norte 15 Noroeste 0 -- -- 85
2020-03-31 23:00:00 11.5 8 Nordeste 21 Norte 0 -- -- 83
2020-03-31 22:00:00 11.8 8 Norte 20 Norte 0 -- -- 82
2020-03-31 21:00:00 12 5 Norte 12 Norte 0 -- -- 84
2020-03-31 20:00:00 12.3 6 Norte 15 Norte 0 -- -- 82
2020-03-31 19:00:00 12.7 6 Norte 19 Nordeste 0 -- -- 82
2020-03-31 18:00:00 13.2 9 Norte 21 Norte 0 -- -- 80
2020-03-31 17:00:00 13.4 6 Norte 20 Norte 0 -- -- 82
2020-03-31 16:00:00 11.7 8 Norte 18 Norte 0 -- -- 87
2020-03-31 15:00:00 11.1 9 Norte 18 Norte 0 -- -- 89
2020-03-31 14:00:00 10.5 7 Norte 13 Noroeste 0 -- -- 90
2020-03-31 13:00:00 9 6 Norte 11 Norte 0 -- -- 91
2020-03-31 12:00:00 8 4 Norte 8 Norte 0 -- -- 93
2020-03-31 11:00:00 7.2 5 Norte 11 Norte 0.2 -- -- 92
2020-03-31 10:00:00 6.5 5 Norte 9 Norte 0.8 -- -- 93
2020-03-31 09:00:00 6.2 2 Noroeste 8 Norte 1.2 -- -- 94
2020-03-31 08:00:00 5.9 0 Calma 12 Sur 1.8 -- -- 92
2020-03-31 07:00:00 5.9 3 Sur 10 Norte 1 -- -- 93
2020-03-31 06:00:00 5.6 4 Norte 13 Noroeste 0 -- -- 92
2020-03-31 05:00:00 5.6 7 Norte 17 Noroeste 0.2 -- -- 92
2020-03-31 04:00:00 5.7 6 Norte 15 Noroeste 0 -- -- 93
2020-03-31 03:00:00 5.7 9 Norte 20 Noroeste 1 -- -- 92
2020-03-31 02:00:00 6.2 6 Norte 12 Norte 1 -- -- 90
2020-03-31 01:00:00 6.4 5 Norte 16 Nordeste 2 -- -- 90
2020-03-31 00:00:00 6.5 6 Nordeste 17 Noroeste 1.6 -- -- 89
2020-03-30 23:00:00 6.6 0 Calma 10 Este 1.4 -- -- 90
2020-03-30 22:00:00 6.6 2 Norte 9 Este 0.2 -- -- 89
2020-03-30 21:00:00 6.6 3 Norte 16 Nordeste 1 -- -- 89
2020-03-30 20:00:00 6.7 6 Norte 21 Norte 1 -- -- 88
2020-03-30 19:00:00 8.1 2 Sudoeste 8 Sur 1.8 -- -- 89
2020-03-30 18:00:00 8.9 2 Sudeste 19 Nordeste 0.6 -- -- 84
2020-03-30 17:00:00 9.1 2 Este 17 Este 0.2 -- -- 84
2020-03-30 16:00:00 10.1 7 Este 19 Este 0 -- -- 79
2020-03-30 15:00:00 10.9 4 Este 22 Norte 0 -- -- 79
2020-03-30 14:00:00 12.8 9 Norte 22 Norte 0 -- -- 72
2020-03-30 13:00:00 13.6 4 Nordeste 9 Nordeste 0 -- -- 67
2020-03-30 12:00:00 12.4 4 Nordeste 6 Nordeste 0 -- -- 71
2020-03-30 11:00:00 10.8 2 Nordeste 4 Este 0 -- -- 76
2020-03-30 10:00:00 8.2 0 Calma 2 Este 0 -- -- 88
2020-03-30 09:00:00 7 0 Calma 3 Este 0 -- -- 92
2020-03-30 08:00:00 6.7 0 Calma 3 Sudeste 0 -- -- 90
2020-03-30 07:00:00 7.2 0 Calma 4 Sudoeste 0 -- -- 86
2020-03-30 06:00:00 8.1 0 Calma 4 Oeste 0 -- -- 83
2020-03-30 05:00:00 8.8 0 Calma 8 Oeste 0 -- -- 79
2020-03-30 04:00:00 9.4 3 Oeste 7 Norte 0 -- -- 75
2020-03-30 03:00:00 9.7 3 Sudoeste 9 Sur 0 -- -- 75
2020-03-30 02:00:00 9.4 0 Calma 4 Sudeste 0 -- -- 78
2020-03-30 01:00:00 10.6 0 Calma 5 Oeste 0 -- -- 71
2020-03-30 00:00:00 11.5 0 Calma 5 Nordeste 0 -- -- 64
2020-03-29 23:00:00 12.6 0 Calma 9 Sudeste 0 -- -- 61
2020-03-29 22:00:00 14 2 Sur 12 Sudeste 0 -- -- 54
2020-03-29 21:00:00 14.6 4 Este 9 Nordeste 0 -- -- 56
2020-03-29 20:00:00 17.4 3 Este 16 Noroeste 0 -- -- 49
2020-03-29 19:00:00 18.6 6 Norte 22 Sudoeste 0 -- -- 40
2020-03-29 18:00:00 19.8 12 Sur 34 Sur 0 -- -- 37
2020-03-29 17:00:00 20.1 10 Sudoeste 27 Sudoeste 0 -- -- 36
2020-03-29 16:00:00 19.4 9 Oeste 23 Sudoeste 0 -- -- 39
2020-03-29 15:00:00 18.6 8 Norte 26 Noroeste 0 -- -- 44
2020-03-29 14:00:00 17.4 11 Noroeste 24 Noroeste 0 -- -- 45
2020-03-29 13:00:00 16 6 Este 12 Sudeste 0 -- -- 59
2020-03-29 12:00:00 11.9 2 Nordeste 6 Este 0 -- -- 74
2020-03-29 11:00:00 7.8 0 Calma 4 Nordeste 0 -- -- 88
2020-03-29 10:00:00 3.9 0 Calma 4 Este 0 -- -- 97
2020-03-29 09:00:00 1.8 0 Calma 2 Sudeste 0 -- -- 96
2020-03-29 08:00:00 0.7 0 Calma 0 Calma 0 -- -- 96
2020-03-29 07:00:00 1 0 Calma 0 Calma 0 -- -- 95
2020-03-29 06:00:00 1.5 0 Calma 4 Sudeste 0 -- -- 95
2020-03-29 05:00:00 2.2 0 Calma 0 Calma 0 -- -- 94
2020-03-29 03:00:00 3.3 0 Calma 2 Sudeste 0 -- -- 93
2020-03-29 01:00:00 4 0 Calma 2 Oeste 0 -- -- 93
2020-03-29 00:00:00 4.7 0 Calma 4 Noroeste 0 -- -- 92
2020-03-28 23:00:00 5.6 0 Calma 2 Sudoeste 0 -- -- 90
2020-03-28 22:00:00 6.8 0 Calma 2 Sudoeste 0 -- -- 88
2020-03-28 21:00:00 8 0 Calma 3 Sudoeste 0 -- -- 84
2020-03-28 20:00:00 10 0 Calma 4 Sudoeste 0 -- -- 76
2020-03-28 19:00:00 12.3 2 Oeste 6 Sur 0 -- -- 67
2020-03-28 18:00:00 13.9 3 Sur 10 Nordeste 0 -- -- 56
2020-03-28 17:00:00 14.1 6 Norte 18 Este 0 -- -- 50
2020-03-28 16:00:00 15.4 7 Sudeste 19 Nordeste 0 -- -- 48
2020-03-28 15:00:00 14.7 9 Noroeste 19 Noroeste 0 -- -- 52
2020-03-28 14:00:00 13.5 4 Noroeste 14 Noroeste 0 -- -- 57
2020-03-28 13:00:00 12.3 5 Norte 12 Nordeste 0 -- -- 57
2020-03-28 12:00:00 10 0 Calma 9 Este 0 -- -- 78
2020-03-28 11:00:00 6.3 0 Calma 6 Nordeste 0 -- -- 92
2020-03-28 10:00:00 4.9 3 Norte 6 Norte 0 -- -- 96
2020-03-28 09:00:00 4.2 0 Calma 4 Sudoeste 0 -- -- 97
2020-03-28 08:00:00 3.7 2 Oeste 8 Oeste 0 -- -- 97
2020-03-28 07:00:00 3.8 3 Noroeste 6 Noroeste 0 -- -- 96
2020-03-28 06:00:00 3.9 5 Norte 8 Norte 0 -- -- 96
2020-03-28 05:00:00 4.4 3 Norte 5 Norte 0 -- -- 95
2020-03-28 04:00:00 5.1 0 Calma 3 Noroeste 0 -- -- 95
2020-03-28 03:00:00 5.9 0 Calma 4 Norte 0 -- -- 95
2020-03-28 02:00:00 6.1 0 Calma 2 Este 0 -- -- 96
2020-03-28 01:00:00 6.2 0 Calma 2 Norte 0 -- -- 96
2020-03-28 00:00:00 6.4 0 Calma 3 Noroeste 0 -- -- 95
2020-03-27 23:00:00 6.4 0 Calma 3 Sudoeste 0 -- -- 95
2020-03-27 22:00:00 6.4 0 Calma 3 Sudoeste 0 -- -- 95
2020-03-27 21:00:00 6.5 0 Calma 2 Oeste 0 -- -- 94
2020-03-27 20:00:00 6.5 0 Calma 2 Sudoeste 0.4 -- -- 93
2020-03-27 19:00:00 6.5 0 Calma 4 Noroeste 0.2 -- -- 91
2020-03-27 18:00:00 6.4 4 Noroeste 8 Nordeste 0.2 -- -- 88
2020-03-27 17:00:00 6.4 4 Norte 10 Norte 0.6 -- -- 89
2020-03-27 16:00:00 6.8 6 Norte 12 Norte 0.6 -- -- 90
2020-03-27 15:00:00 6.7 6 Noroeste 13 Norte 1.2 -- -- 90
2020-03-27 14:00:00 6.8 6 Norte 12 Norte 1 -- -- 90
2020-03-27 13:00:00 6.7 4 Norte 11 Norte 1.6 -- -- 89
2020-03-27 12:00:00 6.6 2 Norte 13 Norte 1.2 -- -- 89
2020-03-27 11:00:00 6 4 Norte 18 Noroeste 2 -- -- 90
2020-03-27 10:00:00 6.3 4 Noroeste 15 Noroeste 0.2 -- -- 85
2020-03-27 09:00:00 6.1 8 Noroeste 15 Noroeste 0 -- -- 82
2020-03-27 08:00:00 6.2 5 Noroeste 14 Noroeste 0 -- -- 80
2020-03-27 07:00:00 6.2 5 Norte 12 Norte 0 -- -- 78
2020-03-27 06:00:00 6.2 4 Noroeste 8 Noroeste 0 -- -- 78
2020-03-27 05:00:00 6 3 Noroeste 7 Norte 0 -- -- 79
2020-03-27 04:00:00 6.2 0 Calma 15 Sur 0 -- -- 75
2020-03-27 03:00:00 6.5 0 Calma 18 Este 0 -- -- 76
2020-03-27 02:00:00 7.2 9 Este 23 Este 0 -- -- 72
2020-03-27 01:00:00 7.5 0 Calma 9 Noroeste 0 -- -- 82
2020-03-27 00:00:00 7.7 2 Nordeste 10 Noroeste 0 -- -- 80
2020-03-26 23:00:00 7.9 5 Norte 11 Nordeste 0 -- -- 80
2020-03-26 22:00:00 7.6 3 Norte 9 Norte 0 -- -- 76
2020-03-26 21:00:00 7.8 5 Noroeste 10 Sudoeste 0 -- -- 79
2020-03-26 20:00:00 8.6 2 Sudoeste 5 Sudoeste 0 -- -- 81
2020-03-26 19:00:00 10.4 4 Sudoeste 21 Este 0.2 -- -- 66
2020-03-26 18:00:00 12.9 10 Este 22 Nordeste 0 -- -- 51
2020-03-26 17:00:00 13.9 3 Norte 18 Norte 0 -- -- 42
2020-03-26 16:00:00 13.8 5 Norte 12 Noroeste 0 -- -- 42
2020-03-26 15:00:00 13.5 4 Norte 19 Noroeste 0 -- -- 44
2020-03-26 14:00:00 13.8 4 Norte 24 Norte 0 -- -- 48
2020-03-26 13:00:00 13.1 11 Norte 31 Norte 0 -- -- 45
2020-03-26 12:00:00 13 15 Norte 28 Norte 0 -- -- 47
2020-03-26 11:00:00 11.7 12 Norte 24 Norte 0 -- -- 54
2020-03-26 10:00:00 9.7 11 Norte 23 Norte 0 -- -- 75
2020-03-26 09:00:00 6.9 4 Norte 13 Norte 0 -- -- 95
2020-03-26 08:00:00 6.5 0 Calma 4 Norte 0 -- -- 96
2020-03-26 07:00:00 6.3 0 Calma 3 Sudeste 0 -- -- 96
2020-03-26 06:00:00 6.1 0 Calma 3 Sur 0 -- -- 96
2020-03-26 05:00:00 5.9 0 Calma 5 Sudoeste 0 -- -- 96
2020-03-26 04:00:00 6 0 Calma 3 Norte 0 -- -- 95
2020-03-26 03:00:00 6.2 2 Oeste 5 Noroeste 0 -- -- 95
2020-03-26 02:00:00 6.6 0 Calma 6 Sur 0 -- -- 95
2020-03-26 01:00:00 6.2 3 Sur 8 Noroeste 0 -- -- 95
2020-03-26 00:00:00 6.6 2 Noroeste 6 Oeste 0 -- -- 93
2020-03-25 23:00:00 7.1 0 Calma 7 Norte 0 -- -- 93
2020-03-25 22:00:00 7.2 5 Noroeste 12 Norte 0 -- -- 91
2020-03-25 21:00:00 7.3 0 Calma 3 Noroeste 0 -- -- 93
2020-03-25 20:00:00 7.4 0 Calma 13 Sudeste 0 -- -- 91
2020-03-25 19:00:00 8 2 Sur 9 Sudeste 0.2 -- -- 92
2020-03-25 18:00:00 8.1 3 Sudeste 14 Noroeste 2.4 -- -- 91
2020-03-25 17:00:00 8.5 8 Norte 21 Norte 0.6 -- -- 88
2020-03-25 16:00:00 10.3 6 Norte 17 Norte 0 -- -- 77
2020-03-25 15:00:00 10.6 3 Este 12 Este 0 -- -- 70
2020-03-25 14:00:00 10.3 3 Este 8 Este 0 -- -- 74
2020-03-25 13:00:00 9.8 2 Oeste 5 Oeste 0 -- -- 77
2020-03-25 12:00:00 8.9 0 Calma 3 Sur 0 -- -- 85
2020-03-25 11:00:00 8.2 0 Calma 3 Norte 0.2 -- -- 86
2020-03-25 10:00:00 7.6 0 Calma 2 Oeste 0.2 -- -- 92
2020-03-25 09:00:00 7.2 0 Calma 4 Noroeste 0.4 -- -- 94
2020-03-25 08:00:00 6.8 0 Calma 4 Norte 0.2 -- -- 94
2020-03-25 07:00:00 6.9 0 Calma 9 Noroeste 0.6 -- -- 93
2020-03-25 06:00:00 7.2 3 Noroeste 6 Noroeste 0.8 -- -- 93
2020-03-25 05:00:00 7.5 3 Noroeste 6 Este 0.2 -- -- 91
2020-03-25 04:00:00 8 0 Calma 15 Norte 0 -- -- 85
2020-03-25 03:00:00 8.5 7 Nordeste 16 Nordeste 0 -- -- 83
2020-03-25 02:00:00 8.5 4 Noroeste 12 Norte 0 -- -- 84
2020-03-25 01:00:00 8.7 6 Norte 16 Norte 0 -- -- 82
2020-03-25 00:00:00 9.3 5 Norte 22 Este 0 -- -- 79
2020-03-24 23:00:00 9.4 8 Norte 30 Norte 0 -- -- 78
2020-03-24 22:00:00 9.7 11 Norte 29 Norte 0 -- -- 75
2020-03-24 21:00:00 9.7 12 Norte 35 Nordeste 0 -- -- 76
2020-03-24 20:00:00 9.7 7 Norte 28 Norte 0 -- -- 81
2020-03-24 19:00:00 10.1 8 Norte 25 Noroeste 0 -- -- 77
2020-03-24 18:00:00 10.6 7 Nordeste 33 Norte 0 -- -- 78
2020-03-24 17:00:00 10.3 9 Norte 28 Nordeste 0 -- -- 82
2020-03-24 16:00:00 10.2 6 Norte 37 Nordeste 0 -- -- 85
2020-03-24 15:00:00 9.9 15 Norte 38 Norte 0.2 -- -- 88
2020-03-24 14:00:00 10.2 13 Nordeste 52 Norte 0.4 -- -- 85
2020-03-24 13:00:00 10.3 11 Nordeste 45 Norte 0.2 -- -- 85
2020-03-24 12:00:00 10.1 14 Norte 34 Nordeste 0.8 -- -- 90
2020-03-24 11:00:00 10.6 15 Norte 36 Norte 3.2 -- -- 87
2020-03-24 10:00:00 9.9 9 Norte 30 Nordeste 4.2 -- -- 91
2020-03-24 09:00:00 10 14 Norte 37 Norte 5.4 -- -- 91
2020-03-24 08:00:00 10.3 12 Norte 35 Norte 5.6 -- -- 92
2020-03-24 07:00:00 10.6 7 Norte 36 Norte 3.6 -- -- 90
2020-03-24 06:00:00 11 11 Norte 39 Nordeste 0.6 -- -- 88
2020-03-24 05:00:00 11.1 10 Norte 28 Norte 2.2 -- -- 88
2020-03-24 04:00:00 10.9 5 Norte 10 Norte 2.8 -- -- 90
2020-03-24 03:00:00 11.2 3 Sudeste 16 Este 0.4 -- -- 88
2020-03-24 02:00:00 11.1 4 Norte 13 Norte 1.2 -- -- 90
2020-03-24 01:00:00 11.3 3 Sudoeste 17 Sudeste 0.4 -- -- 88
2020-03-24 00:00:00 12 9 Nordeste 30 Sudeste 0.2 -- -- 81
2020-03-23 23:00:00 12 8 Sudeste 21 Este 0 -- -- 79
2020-03-23 22:00:00 12 8 Norte 32 Norte 0 -- -- 79
2020-03-23 21:00:00 11.9 7 Norte 31 Sudoeste 0 -- -- 80
2020-03-23 20:00:00 11.6 6 Norte 23 Norte 0.4 -- -- 87
2020-03-23 19:00:00 11.9 8 Norte 20 Norte 0 -- -- 85
2020-03-23 18:00:00 12.2 9 Norte 23 Nordeste 0 -- -- 83
2020-03-23 17:00:00 11.7 4 Noroeste 17 Noroeste 0.2 -- -- 90
2020-03-23 16:00:00 11.2 8 Noroeste 15 Norte 2.8 -- -- 90
2020-03-23 15:00:00 11.3 9 Noroeste 17 Norte 2.8 -- -- 86
2020-03-23 14:00:00 13.5 8 Norte 16 Nordeste 0 -- -- 81
2020-03-23 13:00:00 12.7 3 Nordeste 10 Sudoeste 0.6 -- -- 86
2020-03-23 12:00:00 12 5 Noroeste 11 Norte 0 -- -- 88
2020-03-23 11:00:00 11.7 7 Norte 14 Norte 0 -- -- 87
2020-03-23 10:00:00 11.5 5 Noroeste 12 Noroeste 0 -- -- 91
2020-03-23 09:00:00 10.7 2 Noroeste 9 Noroeste 0 -- -- 96
2020-03-23 08:00:00 9.6 0 Calma 6 Sudeste 0 -- -- 97
2020-03-23 07:00:00 9.6 2 Oeste 7 Noroeste 0 -- -- 97
2020-03-23 06:00:00 9.3 2 Noroeste 6 Noroeste 0 -- -- 97
2020-03-23 05:00:00 9.2 0 Calma 3 Sudeste 0.8 -- -- 96
2020-03-23 04:00:00 9.2 0 Calma 3 Este 0.2 -- -- 96
2020-03-23 03:00:00 9.3 0 Calma 2 Sur 0.4 -- -- 96
2020-03-23 02:00:00 9.3 0 Calma 4 Norte 0 -- -- 96
2020-03-23 01:00:00 9.3 0 Calma 3 Sudoeste 1.8 -- -- 95
2020-03-23 00:00:00 9.3 0 Calma 6 Sur 1.8 -- -- 95
2020-03-22 23:00:00 9.4 2 Sur 6 Oeste 3.2 -- -- 94
2020-03-22 22:00:00 9.7 5 Noroeste 14 Norte 0.4 -- -- 90
2020-03-22 21:00:00 9.9 5 Norte 13 Noroeste 2.2 -- -- 91
2020-03-22 20:00:00 10.4 6 Norte 13 Norte 0.4 -- -- 90
2020-03-22 19:00:00 10.5 7 Noroeste 12 Norte 0.2 -- -- 91
2020-03-22 18:00:00 10.9 8 Norte 13 Noroeste 0.2 -- -- 91
2020-03-22 17:00:00 10.9 2 Norte 7 Sur 2.4 -- -- 91
2020-03-22 16:00:00 11 4 Sudoeste 11 Sur 2.2 -- -- 89
2020-03-22 15:00:00 12.3 5 Sur 19 Este 0.2 -- -- 78
2020-03-22 14:00:00 12.2 9 Noroeste 17 Este 0 -- -- 80
2020-03-22 13:00:00 12.2 8 Norte 19 Este 0 -- -- 84
2020-03-22 12:00:00 10.9 9 Norte 14 Norte 0 -- -- 90
2020-03-22 11:00:00 9.6 5 Norte 10 Norte 0 -- -- 92
2020-03-22 10:00:00 9.1 4 Norte 9 Norte 0.2 -- -- 95
2020-03-22 09:00:00 8.4 0 Calma 5 Sur 0 -- -- 96
2020-03-22 08:00:00 7.9 0 Calma 2 Nordeste 0 -- -- 96
2020-03-22 07:00:00 7.8 0 Calma 3 Sudoeste 0 -- -- 96
2020-03-22 06:00:00 7.7 0 Calma 4 Este 0 -- -- 96
2020-03-22 05:00:00 7.5 0 Calma 2 Sudoeste 0 -- -- 96
2020-03-22 04:00:00 7.3 0 Calma 2 Oeste 0 -- -- 96
2020-03-22 03:00:00 7.5 0 Calma 2 Noroeste 0 -- -- 95
2020-03-22 02:00:00 7.6 0 Calma 2 Noroeste 0 -- -- 95
2020-03-22 01:00:00 7.8 2 Sudoeste 3 Sudoeste 0 -- -- 95
2020-03-22 00:00:00 8.2 0 Calma 4 Sudoeste 0.2 -- -- 95
2020-03-21 23:00:00 8.3 0 Calma 5 Norte 0.6 -- -- 94
2020-03-21 22:00:00 8.4 0 Calma 4 Norte 2.4 -- -- 94
2020-03-21 21:00:00 8.5 0 Calma 3 Sur 1.6 -- -- 94
2020-03-21 20:00:00 8.6 0 Calma 8 Sudeste 1.8 -- -- 93
2020-03-21 19:00:00 8.7 4 Sur 16 Oeste 3.2 -- -- 92
2020-03-21 18:00:00 9.9 8 Sudoeste 22 Oeste 0 -- -- 83
2020-03-21 17:00:00 10.7 6 Norte 14 Norte 0 -- -- 83
2020-03-21 16:00:00 11 7 Norte 19 Nordeste 0 -- -- 82
2020-03-21 15:00:00 11.1 8 Norte 18 Nordeste 0 -- -- 81
2020-03-21 14:00:00 11 9 Nordeste 20 Nordeste 0 -- -- 81
2020-03-21 13:00:00 11.2 8 Norte 19 Nordeste 0 -- -- 83
2020-03-21 12:00:00 10.8 6 Norte 13 Norte 0 -- -- 84
2020-03-21 11:00:00 10.6 8 Norte 12 Norte 0 -- -- 82
2020-03-21 10:00:00 10.2 3 Norte 8 Norte 0 -- -- 83
2020-03-21 09:00:00 9.9 0 Calma 5 Oeste 0 -- -- 87
2020-03-21 08:00:00 9.7 4 Noroeste 8 Noroeste 0 -- -- 85
2020-03-21 07:00:00 9.8 4 Noroeste 10 Norte 0 -- -- 86
2020-03-21 06:00:00 10 5 Norte 10 Noroeste 0 -- -- 86
2020-03-21 05:00:00 10 3 Norte 8 Norte 0 -- -- 86
2020-03-21 04:00:00 10.2 4 Norte 11 Norte 0 -- -- 86
2020-03-21 03:00:00 10.1 7 Noroeste 11 Norte 0 -- -- 88
2020-03-21 02:00:00 10 6 Noroeste 12 Norte 0 -- -- 89
2020-03-21 01:00:00 9.9 0 Calma 4 Sudoeste 0 -- -- 90
2020-03-21 00:00:00 10.2 2 Oeste 8 Noroeste 0 -- -- 87
2020-03-20 23:00:00 10.6 6 Norte 16 Norte 0 -- -- 84
2020-03-20 22:00:00 10.6 5 Nordeste 11 Nordeste 0 -- -- 80
2020-03-20 21:00:00 10.7 0 Calma 16 Noroeste 0 -- -- 79
2020-03-20 20:00:00 11.1 5 Norte 10 Norte 0 -- -- 79
2020-03-20 19:00:00 11.3 3 Norte 9 Norte 0 -- -- 78
2020-03-20 18:00:00 11.1 4 Norte 11 Norte 0 -- -- 78
2020-03-20 17:00:00 11.1 5 Noroeste 17 Norte 0 -- -- 78
2020-03-20 16:00:00 11.2 11 Norte 17 Norte 0 -- -- 84
2020-03-20 15:00:00 11 4 Nordeste 13 Norte 0 -- -- 87
2020-03-20 14:00:00 11.4 4 Norte 10 Norte 0 -- -- 82
2020-03-20 13:00:00 11.5 4 Norte 10 Norte 0 -- -- 81
2020-03-20 12:00:00 11.4 4 Norte 13 Nordeste 0 -- -- 78
2020-03-20 11:00:00 11.3 8 Norte 21 Norte 0 -- -- 78
2020-03-20 10:00:00 11 7 Norte 13 Norte 0 -- -- 82
2020-03-20 09:00:00 10.6 9 Norte 17 Norte 0 -- -- 82
2020-03-20 08:00:00 10.6 4 Norte 10 Norte 0 -- -- 83
2020-03-20 07:00:00 10.5 5 Norte 10 Norte 0 -- -- 84
2020-03-20 06:00:00 10.6 6 Norte 11 Norte 0 -- -- 85
2020-03-20 05:00:00 10.6 4 Norte 11 Norte 0 -- -- 84
2020-03-20 04:00:00 10.6 4 Norte 11 Noroeste 0 -- -- 85
2020-03-20 03:00:00 10.8 3 Noroeste 9 Sudeste 0 -- -- 83
2020-03-20 02:00:00 11 2 Norte 9 Este 0 -- -- 82
2020-03-20 01:00:00 11.1 0 Calma 10 Norte 0 -- -- 81
2020-03-20 00:00:00 11.1 5 Norte 10 Norte 0 -- -- 83
2020-03-19 23:00:00 11.1 5 Norte 9 Norte 0 -- -- 82
2020-03-19 22:00:00 11.3 5 Norte 12 Norte 0 -- -- 83
2020-03-19 21:00:00 11.4 4 Norte 9 Nordeste 0 -- -- 83
2020-03-19 20:00:00 11.3 3 Norte 7 Norte 0 -- -- 84
2020-03-19 19:00:00 11.3 5 Norte 9 Norte 0 -- -- 85
2020-03-19 18:00:00 11.6 6 Norte 13 Norte 0 -- -- 86
2020-03-19 17:00:00 12.9 5 Nordeste 17 Este 0 -- -- 75
2020-03-19 16:00:00 12.8 6 Este 17 Este 0 -- -- 75
2020-03-19 15:00:00 12.3 6 Norte 14 Norte 0 -- -- 82
2020-03-19 14:00:00 12 7 Norte 18 Nordeste 0 -- -- 82
2020-03-19 13:00:00 12.6 9 Norte 17 Norte 0 -- -- 78
2020-03-19 12:00:00 12.3 7 Norte 18 Nordeste 0 -- -- 78
2020-03-19 11:00:00 11.9 8 Norte 15 Norte 0 -- -- 78
2020-03-19 10:00:00 11.3 6 Norte 15 Norte 0 -- -- 81
2020-03-19 09:00:00 10.1 5 Norte 8 Norte 0 -- -- 87
2020-03-19 08:00:00 9.1 0 Calma 9 Nordeste 0 -- -- 89
2020-03-19 07:00:00 8.8 0 Calma 9 Norte 0 -- -- 90
2020-03-19 06:00:00 8.5 0 Calma 7 Nordeste 0 -- -- 91
2020-03-19 05:00:00 8.1 0 Calma 3 Sudeste 0 -- -- 91
2020-03-19 04:00:00 7.8 0 Calma 2 Nordeste 0 -- -- 92
2020-03-19 03:00:00 7.3 0 Calma 4 Sudeste 0 -- -- 92
2020-03-19 02:00:00 7.2 0 Calma 2 Noroeste 0 -- -- 91
2020-03-19 01:00:00 7.7 0 Calma 4 Noroeste 0 -- -- 87
2020-03-19 00:00:00 8.4 3 Noroeste 5 Noroeste 0 -- -- 86
2020-03-18 23:00:00 9.8 0 Calma 5 Sudeste 0 -- -- 81
2020-03-18 22:00:00 11 4 Este 10 Sudeste 0 -- -- 76
2020-03-18 21:00:00 10.6 3 Noroeste 14 Norte 0 -- -- 78
2020-03-18 20:00:00 11.8 5 Norte 20 Nordeste 0 -- -- 71
2020-03-18 19:00:00 13.1 12 Norte 26 Norte 0 -- -- 64
2020-03-18 18:00:00 14.5 12 Norte 26 Norte 0 -- -- 56
2020-03-18 17:00:00 15.2 11 Norte 35 Norte 0 -- -- 45
2020-03-18 16:00:00 15.4 13 Norte 31 Norte 0 -- -- 53
2020-03-18 15:00:00 15.3 15 Norte 32 Norte 0 -- -- 55
2020-03-18 14:00:00 14.9 14 Norte 29 Norte 0 -- -- 58
2020-03-18 13:00:00 14.8 14 Norte 37 Norte 0 -- -- 58
2020-03-18 12:00:00 13.8 17 Norte 31 Norte 0 -- -- 59
2020-03-18 11:00:00 12.5 11 Norte 23 Norte 0 -- -- 61
2020-03-18 10:00:00 12.1 10 Norte 24 Nordeste 0 -- -- 69
2020-03-18 09:00:00 11.7 10 Norte 28 Nordeste 0 -- -- 76
2020-03-18 08:00:00 11.5 7 Norte 17 Norte 0 -- -- 81
2020-03-18 07:00:00 11.5 9 Norte 26 Norte 0 -- -- 81
2020-03-18 06:00:00 11.7 10 Norte 27 Norte 0 -- -- 82
2020-03-18 05:00:00 11.9 9 Norte 28 Nordeste 0 -- -- 80
2020-03-18 04:00:00 11.9 6 Norte 27 Nordeste 0 -- -- 82
2020-03-18 03:00:00 11.9 7 Norte 26 Norte 0 -- -- 81
2020-03-18 02:00:00 11.9 9 Norte 28 Nordeste 0 -- -- 80
2020-03-18 01:00:00 12 11 Norte 25 Norte 0 -- -- 82
2020-03-18 00:00:00 12.2 10 Norte 28 Nordeste 0 -- -- 80
2020-03-17 23:00:00 12.3 14 Norte 38 Nordeste 0 -- -- 80
2020-03-17 22:00:00 12.3 15 Norte 33 Norte 0 -- -- 84
2020-03-17 21:00:00 12.1 11 Norte 35 Nordeste 0.2 -- -- 88
2020-03-17 20:00:00 12.1 14 Norte 35 Nordeste 0 -- -- 90
2020-03-17 19:00:00 12.5 15 Norte 41 Norte 0.2 -- -- 89
2020-03-17 18:00:00 12.9 10 Norte 26 Norte 0.4 -- -- 88
2020-03-17 17:00:00 13 13 Norte 35 Norte 0.6 -- -- 89
2020-03-17 16:00:00 13.3 9 Norte 22 Este 0 -- -- 89
2020-03-17 15:00:00 12.1 9 Noroeste 15 Noroeste 0.4 -- -- 93
2020-03-17 14:00:00 11.4 7 Noroeste 12 Norte 0.6 -- -- 93
2020-03-17 13:00:00 11.2 0 Calma 10 Noroeste 0.4 -- -- 92
2020-03-17 12:00:00 10.8 5 Noroeste 11 Norte 0.2 -- -- 91
2020-03-17 11:00:00 9.9 6 Norte 13 Noroeste 0.8 -- -- 90
2020-03-17 10:00:00 9.5 7 Norte 13 Norte 0.8 -- -- 93
2020-03-17 09:00:00 7.8 0 Calma 8 Norte 2.6 -- -- 96
2020-03-17 08:00:00 6.7 0 Calma 2 Norte 1.6 -- -- 96
2020-03-17 07:00:00 6.4 0 Calma 4 Sudoeste 1.2 -- -- 96
2020-03-17 06:00:00 6.2 0 Calma 6 Noroeste 2 -- -- 95
2020-03-17 05:00:00 6.1 0 Calma 4 Norte 1 -- -- 95
2020-03-17 04:00:00 6 0 Calma 4 Sudoeste 0 -- -- 95
2020-03-17 03:00:00 5.8 2 Noroeste 5 Norte 0 -- -- 94
2020-03-17 02:00:00 5.8 3 Noroeste 4 Noroeste 0 -- -- 94
2020-03-17 01:00:00 5.9 0 Calma 2 Norte 0 -- -- 94
2020-03-17 00:00:00 5.9 0 Calma 3 Norte 0 -- -- 94
2020-03-16 23:00:00 5.8 0 Calma 2 Sudeste 0 -- -- 94
2020-03-16 22:00:00 5.6 0 Calma 3 Sur 0 -- -- 94
2020-03-16 21:00:00 5.4 0 Calma 4 Nordeste 0.2 -- -- 94
2020-03-16 20:00:00 5.4 0 Calma 3 Este 0.8 -- -- 94
2020-03-16 19:00:00 5.4 2 Sur 6 Sudoeste 0.6 -- -- 93
2020-03-16 18:00:00 5.3 5 Sur 12 Sur 1.2 -- -- 91
2020-03-16 17:00:00 5.3 4 Nordeste 10 Nordeste 1.2 -- -- 88
2020-03-16 16:00:00 5.3 0 Calma 9 Sudoeste 0 -- -- 89
2020-03-16 15:00:00 4.8 4 Norte 9 Noroeste 2.6 -- -- 89
2020-03-16 14:00:00 5.5 0 Calma 6 Sudoeste 1.6 -- -- 91
2020-03-16 13:00:00 5.4 0 Calma 14 Norte 3.8 -- -- 89
2020-03-16 12:00:00 6.6 4 Sudoeste 14 Norte 0 -- -- 82
2020-03-16 11:00:00 6.5 0 Calma 27 Noroeste 0.4 -- -- 87
2020-03-16 10:00:00 7.2 14 Norte 45 Noroeste 0.2 -- -- 81
2020-03-16 09:00:00 10.6 16 Oeste 43 Sur 0 -- -- 75
2020-03-16 08:00:00 10.9 4 Sudeste 8 Sudeste 0 -- -- 91
2020-03-16 07:00:00 10.5 2 Sudoeste 5 Sudoeste 0 -- -- 94
2020-03-16 06:00:00 10.4 3 Oeste 6 Oeste 0 -- -- 94
2020-03-16 05:00:00 10.9 0 Calma 6 Norte 0.2 -- -- 93
2020-03-16 04:00:00 11.2 2 Oeste 5 Noroeste 0.4 -- -- 92
2020-03-16 03:00:00 11.4 0 Calma 8 Sur 0.4 -- -- 91
2020-03-16 02:00:00 11.7 4 Sudoeste 15 Norte 0 -- -- 89
2020-03-16 01:00:00 12.2 0 Calma 8 Norte 0.2 -- -- 84
2020-03-16 00:00:00 12.5 5 Norte 13 Noroeste 0 -- -- 82
2020-03-15 23:00:00 12.7 3 Noroeste 12 Noroeste 0 -- -- 81
2020-03-15 22:00:00 12.8 5 Noroeste 25 Noroeste 0 -- -- 80
2020-03-15 21:00:00 13.2 13 Noroeste 22 Noroeste 0 -- -- 79
2020-03-15 20:00:00 14.1 6 Noroeste 14 Norte 0 -- -- 78
2020-03-15 19:00:00 15 10 Norte 22 Norte 0 -- -- 75
2020-03-15 18:00:00 16.7 12 Norte 28 Nordeste 0 -- -- 69
2020-03-15 17:00:00 18.9 12 Norte 26 Noroeste 0 -- -- 60
2020-03-15 16:00:00 20 15 Norte 30 Norte 0 -- -- 53
2020-03-15 15:00:00 22.6 12 Sudeste 27 Sudeste 0 -- -- 35
2020-03-15 14:00:00 21.5 13 Sudeste 28 Sur 0 -- -- 38
2020-03-15 13:00:00 19.9 4 Sudeste 16 Norte 0 -- -- 41
2020-03-15 12:00:00 16 7 Norte 14 Norte 0 -- -- 66
2020-03-15 11:00:00 15 5 Norte 12 Sudeste 0 -- -- 67
2020-03-15 10:00:00 13.7 3 Nordeste 8 Sur 0 -- -- 73
2020-03-15 09:00:00 11.1 3 Nordeste 6 Nordeste 0 -- -- 85
2020-03-15 08:00:00 7.9 0 Calma 4 Nordeste 0 -- -- 93
2020-03-15 07:00:00 7.9 0 Calma 2 Sur 0 -- -- 92
2020-03-15 06:00:00 7.5 0 Calma 3 Sudeste 0 -- -- 93
2020-03-15 05:00:00 6.8 0 Calma 0 Calma 0 -- -- 92
2020-03-15 04:00:00 7 0 Calma 3 Sudeste 0 -- -- 91
2020-03-15 03:00:00 8.1 0 Calma 2 Norte 0 -- -- 90
2020-03-15 02:00:00 8.8 0 Calma 0 Calma 0 -- -- 87
2020-03-15 01:00:00 9.7 0 Calma 10 Noroeste 0 -- -- 85
2020-03-15 00:00:00 11.5 6 Noroeste 12 Noroeste 0 -- -- 83
2020-03-14 23:00:00 11.9 5 Noroeste 13 Noroeste 0 -- -- 81
2020-03-14 22:00:00 12.4 6 Noroeste 10 Noroeste 0 -- -- 80
2020-03-14 21:00:00 13.6 7 Noroeste 19 Noroeste 0 -- -- 76
2020-03-14 20:00:00 14.9 10 Noroeste 18 Noroeste 0 -- -- 71
2020-03-14 19:00:00 17.1 11 Norte 22 Norte 0 -- -- 64
2020-03-14 18:00:00 19 11 Norte 18 Noroeste 0 -- -- 58
2020-03-14 17:00:00 21.5 9 Norte 23 Norte 0 -- -- 45
2020-03-14 16:00:00 22.1 12 Norte 23 Nordeste 0 -- -- 42
2020-03-14 15:00:00 22.1 11 Norte 20 Norte 0 -- -- 42
2020-03-14 14:00:00 21.9 5 Sudeste 15 Sudeste 0 -- -- 41
2020-03-14 13:00:00 20.4 4 Este 10 Sudoeste 0 -- -- 42
2020-03-14 12:00:00 17.6 4 Norte 9 Nordeste 0 -- -- 51
2020-03-14 11:00:00 14.6 2 Sur 14 Nordeste 0 -- -- 64
2020-03-14 10:00:00 10 9 Nordeste 14 Nordeste 0 -- -- 85
2020-03-14 09:00:00 7.5 0 Calma 3 Este 0 -- -- 96
2020-03-14 08:00:00 6.2 0 Calma 3 Este 0 -- -- 95
2020-03-14 07:00:00 6.2 0 Calma 2 Sudeste 0 -- -- 94
2020-03-14 06:00:00 5.8 0 Calma 2 Sudeste 0 -- -- 93
2020-03-14 05:00:00 6.1 0 Calma 2 Este 0 -- -- 92
2020-03-14 04:00:00 6.8 0 Calma 0 Calma 0 -- -- 91
2020-03-14 03:00:00 7.4 0 Calma 0 Calma 0 -- -- 90
2020-03-14 02:00:00 8.2 0 Calma 5 Noroeste 0 -- -- 88
2020-03-14 01:00:00 9.2 0 Calma 2 Sudoeste 0 -- -- 86
2020-03-14 00:00:00 10.4 0 Calma 7 Noroeste 0 -- -- 83
2020-03-13 23:00:00 12 4 Noroeste 8 Noroeste 0 -- -- 79
2020-03-13 22:00:00 12.8 5 Noroeste 8 Norte 0 -- -- 76
2020-03-13 21:00:00 13 0 Calma 3 Noroeste 0 -- -- 74
2020-03-13 20:00:00 14 2 Sudoeste 12 Este 0 -- -- 70
2020-03-13 19:00:00 15.5 2 Nordeste 14 Este 0 -- -- 64
2020-03-13 18:00:00 16.7 7 Este 20 Este 0 -- -- 61
2020-03-13 17:00:00 18.1 6 Este 23 Nordeste 0 -- -- 56
2020-03-13 16:00:00 17.4 11 Norte 24 Nordeste 0 -- -- 57
2020-03-13 15:00:00 18 15 Norte 30 Norte 0 -- -- 55
2020-03-13 14:00:00 18.3 14 Norte 30 Norte 0 -- -- 53
2020-03-13 13:00:00 18 13 Norte 26 Nordeste 0 -- -- 50
2020-03-13 12:00:00 16.7 11 Norte 20 Norte 0 -- -- 53
2020-03-13 11:00:00 15.1 7 Norte 17 Norte 0 -- -- 64
2020-03-13 10:00:00 14.1 3 Sudoeste 8 Sur 0 -- -- 71
2020-03-13 09:00:00 10.9 2 Noroeste 7 Noroeste 0 -- -- 84
2020-03-13 08:00:00 9.7 6 Norte 21 Noroeste 0 -- -- 89
2020-03-13 07:00:00 7.1 0 Calma 7 Norte 0 -- -- 91
2020-03-13 06:00:00 7.4 0 Calma 2 Sudoeste 0 -- -- 90
2020-03-13 05:00:00 8 0 Calma 3 Sudeste 0 -- -- 90
2020-03-13 04:00:00 8.5 0 Calma 3 Noroeste 0 -- -- 88
2020-03-13 03:00:00 9.3 0 Calma 2 Sudeste 0 -- -- 87
2020-03-13 02:00:00 10.2 0 Calma 3 Sudeste 0 -- -- 84
2020-03-13 01:00:00 11.4 0 Calma 3 Noroeste 0 -- -- 81
2020-03-13 00:00:00 12.6 0 Calma 2 Noroeste 0 -- -- 76
2020-03-12 23:00:00 14 0 Calma 4 Nordeste 0 -- -- 72
2020-03-12 22:00:00 16.4 0 Calma 12 Noroeste 0 -- -- 65
2020-03-12 21:00:00 18.9 9 Noroeste 22 Noroeste 0 -- -- 57
2020-03-12 20:00:00 20.5 11 Noroeste 18 Noroeste 0 -- -- 54
2020-03-12 19:00:00 22.4 10 Noroeste 20 Noroeste 0 -- -- 50
2020-03-12 18:00:00 24.5 14 Noroeste 22 Noroeste 0 -- -- 44
2020-03-12 17:00:00 26.9 10 Norte 20 Nordeste 0 -- -- 37
2020-03-12 16:00:00 27.9 9 Nordeste 21 Nordeste 0 -- -- 36
2020-03-12 15:00:00 28.2 7 Norte 15 Noroeste 0 -- -- 34
2020-03-12 14:00:00 26 10 Norte 16 Noroeste 0 -- -- 39
2020-03-12 13:00:00 23.8 3 Este 8 Este 0 -- -- 42
2020-03-12 12:00:00 20.7 4 Sudeste 7 Este 0 -- -- 51
2020-03-12 11:00:00 16.8 3 Sudeste 8 Norte 0 -- -- 60
2020-03-12 10:00:00 13.1 4 Nordeste 8 Norte 0 -- -- 69
2020-03-12 09:00:00 9.7 0 Calma 4 Este 0 -- -- 83
2020-03-12 08:00:00 6.7 0 Calma 2 Sudeste 0 -- -- 92
2020-03-12 07:00:00 6.6 0 Calma 2 Sudoeste 0 -- -- 89
2020-03-12 06:00:00 7 0 Calma 4 Norte 0 -- -- 87
2020-03-12 05:00:00 7.7 0 Calma 0 Calma 0 -- -- 88
2020-03-12 04:00:00 8.3 0 Calma -- -- 0 -- -- 84
2020-03-12 03:00:00 9.1 0 Calma 3 Norte 0 -- -- 82
2020-03-12 02:00:00 9.9 0 Calma 2 Norte 0 -- -- 80
2020-03-12 01:00:00 10.9 0 Calma -- -- 0 -- -- 76
2020-03-12 00:00:00 12.3 0 Calma -- -- 0 -- -- 71
2020-03-11 23:00:00 14.1 0 Calma 3 Norte 0 -- -- 65
2020-03-11 22:00:00 16.6 2 Noroeste 14 Noroeste 0 -- -- 57
2020-03-11 21:00:00 18.4 9 Noroeste 18 Noroeste 0 -- -- 52
2020-03-11 20:00:00 20.1 13 Noroeste 23 Noroeste 0 -- -- 47
2020-03-11 19:00:00 22.3 14 Noroeste 22 Norte 0 -- -- 43
2020-03-11 18:00:00 25.4 12 Noroeste 22 Noroeste 0 -- -- 38
2020-03-11 17:00:00 29.7 3 Oeste 12 Este 0 -- -- 29
2020-03-11 16:00:00 28.9 6 Nordeste 17 Norte 0 -- -- 27
2020-03-11 15:00:00 28.1 8 Norte 20 Noroeste 0 -- -- 29
2020-03-11 14:00:00 27.5 8 Noroeste 22 Noroeste 0 -- -- 29
2020-03-11 13:00:00 25.7 5 Sur 9 Sudeste 0 -- -- 37
2020-03-11 12:00:00 21.7 3 Este 7 Este 0 -- -- 44
2020-03-11 11:00:00 18.4 2 Sudeste 7 Este 0 -- -- 49
2020-03-11 10:00:00 14.8 3 Este 6 Este 0 -- -- 56
2020-03-11 09:00:00 10.9 0 Calma 4 Este 0 -- -- 70
2020-03-11 08:00:00 7 0 Calma 2 Este 0 -- -- 83
2020-03-11 07:00:00 7.2 0 Calma 3 Sudeste 0 -- -- 81
2020-03-11 06:00:00 8.3 0 Calma 5 Este 0 -- -- 76
2020-03-11 05:00:00 9.4 0 Calma 5 Sudeste 0 -- -- 72
2020-03-11 04:00:00 11.7 2 Oeste 14 Norte 0 -- -- 63
2020-03-11 03:00:00 13.3 8 Norte 12 Noroeste 0 -- -- 58
2020-03-11 02:00:00 12.9 0 Calma 4 Sur 0 -- -- 60
2020-03-11 01:00:00 14 0 Calma 4 Sudoeste 0 -- -- 57
2020-03-11 00:00:00 16 3 Noroeste 9 Este 0 -- -- 51
2020-03-10 23:00:00 17.1 5 Noroeste 12 Nordeste 0 -- -- 47
2020-03-10 22:00:00 17.3 4 Nordeste 14 Sudeste 0 -- -- 48
2020-03-10 21:00:00 16.2 4 Nordeste 12 Este 0 -- -- 54
2020-03-10 20:00:00 17.1 0 Calma 7 Este 0 -- -- 53
2020-03-10 19:00:00 19.5 0 Calma 5 Sudoeste 0 -- -- 48
2020-03-10 18:00:00 22.3 3 Sudoeste 22 Sur 0 -- -- 41
2020-03-10 17:00:00 23.2 9 Sur 24 Sudoeste 0 -- -- 35
2020-03-10 16:00:00 23.3 4 Sudoeste 21 Sur 0 -- -- 33
2020-03-10 15:00:00 22.9 8 Sur 21 Sur 0 -- -- 32
2020-03-10 14:00:00 21.6 8 Sur 28 Sur 0 -- -- 34
2020-03-10 13:00:00 19 12 Sudoeste 25 Sudoeste 0 -- -- 35
2020-03-10 12:00:00 17.3 3 Nordeste 6 Este 0 -- -- 40
2020-03-10 11:00:00 14.2 3 Sudeste 10 Sudeste 0 -- -- 49
2020-03-10 10:00:00 11.7 8 Noroeste 14 Noroeste 0 -- -- 54
2020-03-10 09:00:00 10.8 3 Norte 18 Sudoeste 0 -- -- 55
2020-03-10 08:00:00 10.6 6 Sudoeste 18 Sudoeste 0 -- -- 53
2020-03-10 07:00:00 9.3 0 Calma 19 Sudoeste 0 -- -- 57
2020-03-10 06:00:00 9.9 8 Oeste 15 Oeste 0 -- -- 53
2020-03-10 05:00:00 10 2 Sudoeste 9 Norte 0 -- -- 53
2020-03-10 04:00:00 11.8 4 Norte 20 Oeste 0 -- -- 46
2020-03-10 03:00:00 10.4 3 Noroeste 13 Norte 0 -- -- 50
2020-03-10 02:00:00 12.7 4 Norte 18 Noroeste 0 -- -- 44
2020-03-10 01:00:00 12.3 2 Norte 13 Oeste 0 -- -- 46
2020-03-10 00:00:00 14.4 8 Noroeste 23 Sudoeste 0 -- -- 40